sensor_id;sensor_type;location;lat;lon;timestamp;temperature;humidity
46754;DHT22;32500;50.620;3.400;2023-04-28T00:01:41;16.80;69.00
46754;DHT22;32500;50.620;3.400;2023-04-28T00:04:07;16.80;69.00
46754;DHT22;32500;50.620;3.400;2023-04-28T00:06:33;16.80;69.10
46754;DHT22;32500;50.620;3.400;2023-04-28T00:08:58;16.70;69.00
46754;DHT22;32500;50.620;3.400;2023-04-28T00:11:24;16.80;69.10
46754;DHT22;32500;50.620;3.400;2023-04-28T00:13:50;16.70;69.00
46754;DHT22;32500;50.620;3.400;2023-04-28T00:16:16;16.70;69.00
46754;DHT22;32500;50.620;3.400;2023-04-28T00:18:41;16.70;69.00
46754;DHT22;32500;50.620;3.400;2023-04-28T00:21:07;16.70;69.00
46754;DHT22;32500;50.620;3.400;2023-04-28T00:23:33;16.70;69.10
46754;DHT22;32500;50.620;3.400;2023-04-28T00:25:58;16.70;69.00
46754;DHT22;32500;50.620;3.400;2023-04-28T00:28:24;16.70;69.00
46754;DHT22;32500;50.620;3.400;2023-04-28T00:30:49;16.70;69.00
46754;DHT22;32500;50.620;3.400;2023-04-28T00:33:15;16.70;69.00
46754;DHT22;32500;50.620;3.400;2023-04-28T00:35:41;16.70;69.10
46754;DHT22;32500;50.620;3.400;2023-04-28T00:38:07;16.70;69.00
46754;DHT22;32500;50.620;3.400;2023-04-28T00:40:37;16.70;69.10
46754;DHT22;32500;50.620;3.400;2023-04-28T00:43:03;16.70;69.10
46754;DHT22;32500;50.620;3.400;2023-04-28T00:45:30;16.70;69.10
46754;DHT22;32500;50.620;3.400;2023-04-28T00:47:56;16.70;69.10
46754;DHT22;32500;50.620;3.400;2023-04-28T00:50:23;16.70;69.10
46754;DHT22;32500;50.620;3.400;2023-04-28T00:52:51;16.70;69.10
46754;DHT22;32500;50.620;3.400;2023-04-28T00:55:17;16.70;69.10
46754;DHT22;32500;50.620;3.400;2023-04-28T00:57:43;16.60;69.10
46754;DHT22;32500;50.620;3.400;2023-04-28T01:00:09;16.60;69.10
46754;DHT22;32500;50.620;3.400;2023-04-28T01:02:35;16.60;69.10
46754;DHT22;32500;50.620;3.400;2023-04-28T01:05:02;16.60;69.20
46754;DHT22;32500;50.620;3.400;2023-04-28T01:07:28;16.60;69.20
46754;DHT22;32500;50.620;3.400;2023-04-28T01:09:54;16.60;69.20
46754;DHT22;32500;50.620;3.400;2023-04-28T01:12:20;16.60;69.30
46754;DHT22;32500;50.620;3.400;2023-04-28T01:14:47;16.60;69.20
46754;DHT22;32500;50.620;3.400;2023-04-28T01:17:13;16.60;69.20
46754;DHT22;32500;50.620;3.400;2023-04-28T01:19:39;16.60;69.30
46754;DHT22;32500;50.620;3.400;2023-04-28T01:22:05;16.60;69.20
46754;DHT22;32500;50.620;3.400;2023-04-28T01:24:31;16.60;69.20
46754;DHT22;32500;50.620;3.400;2023-04-28T01:26:56;16.60;69.30
46754;DHT22;32500;50.620;3.400;2023-04-28T01:29:22;16.60;69.20
46754;DHT22;32500;50.620;3.400;2023-04-28T01:31:48;16.60;69.30
46754;DHT22;32500;50.620;3.400;2023-04-28T01:34:13;16.60;69.30
46754;DHT22;32500;50.620;3.400;2023-04-28T01:36:39;16.60;69.40
46754;DHT22;32500;50.620;3.400;2023-04-28T01:39:05;16.50;69.20
46754;DHT22;32500;50.620;3.400;2023-04-28T01:41:31;16.60;69.30
46754;DHT22;32500;50.620;3.400;2023-04-28T01:43:59;16.50;69.30
46754;DHT22;32500;50.620;3.400;2023-04-28T01:46:24;16.50;69.30
46754;DHT22;32500;50.620;3.400;2023-04-28T01:48:50;16.50;69.30
46754;DHT22;32500;50.620;3.400;2023-04-28T01:51:16;16.50;69.30
46754;DHT22;32500;50.620;3.400;2023-04-28T01:53:41;16.50;69.30
46754;DHT22;32500;50.620;3.400;2023-04-28T01:56:07;16.50;69.30
46754;DHT22;32500;50.620;3.400;2023-04-28T01:58:33;16.50;69.30
46754;DHT22;32500;50.620;3.400;2023-04-28T02:00:58;16.50;69.30
46754;DHT22;32500;50.620;3.400;2023-04-28T02:03:24;16.50;69.30
46754;DHT22;32500;50.620;3.400;2023-04-28T02:05:49;16.50;69.30
46754;DHT22;32500;50.620;3.400;2023-04-28T02:08:15;16.50;69.30
46754;DHT22;32500;50.620;3.400;2023-04-28T02:10:41;16.50;69.30
46754;DHT22;32500;50.620;3.400;2023-04-28T02:13:06;16.50;69.30
46754;DHT22;32500;50.620;3.400;2023-04-28T02:15:32;16.50;69.30
46754;DHT22;32500;50.620;3.400;2023-04-28T02:17:59;16.50;69.40
46754;DHT22;32500;50.620;3.400;2023-04-28T02:20:25;16.50;69.40
46754;DHT22;32500;50.620;3.400;2023-04-28T02:22:52;16.50;69.40
46754;DHT22;32500;50.620;3.400;2023-04-28T02:25:17;16.40;69.40
46754;DHT22;32500;50.620;3.400;2023-04-28T02:27:43;16.50;69.40
46754;DHT22;32500;50.620;3.400;2023-04-28T02:30:09;16.50;69.40
46754;DHT22;32500;50.620;3.400;2023-04-28T02:32:34;16.40;69.40
46754;DHT22;32500;50.620;3.400;2023-04-28T02:35:00;16.50;69.50
46754;DHT22;32500;50.620;3.400;2023-04-28T02:37:26;16.40;69.50
46754;DHT22;32500;50.620;3.400;2023-04-28T02:39:51;16.50;69.60
46754;DHT22;32500;50.620;3.400;2023-04-28T02:42:17;16.40;69.50
46754;DHT22;32500;50.620;3.400;2023-04-28T02:44:43;16.40;69.40
46754;DHT22;32500;50.620;3.400;2023-04-28T02:47:09;16.40;69.50
46754;DHT22;32500;50.620;3.400;2023-04-28T02:49:34;16.40;69.40
46754;DHT22;32500;50.620;3.400;2023-04-28T02:52:00;16.40;69.50
46754;DHT22;32500;50.620;3.400;2023-04-28T02:54:29;16.40;69.50
46754;DHT22;32500;50.620;3.400;2023-04-28T02:56:56;16.40;69.50
46754;DHT22;32500;50.620;3.400;2023-04-28T02:59:22;16.40;69.60
46754;DHT22;32500;50.620;3.400;2023-04-28T03:01:48;16.40;69.60
46754;DHT22;32500;50.620;3.400;2023-04-28T03:04:14;16.40;69.60
46754;DHT22;32500;50.620;3.400;2023-04-28T03:06:41;16.40;69.60
46754;DHT22;32500;50.620;3.400;2023-04-28T03:09:07;16.40;69.60
46754;DHT22;32500;50.620;3.400;2023-04-28T03:11:33;16.40;69.60
46754;DHT22;32500;50.620;3.400;2023-04-28T03:13:59;16.40;69.60
46754;DHT22;32500;50.620;3.400;2023-04-28T03:16:24;16.40;69.60
46754;DHT22;32500;50.620;3.400;2023-04-28T03:18:50;16.40;69.60
46754;DHT22;32500;50.620;3.400;2023-04-28T03:21:16;16.40;69.60
46754;DHT22;32500;50.620;3.400;2023-04-28T03:23:41;16.40;69.60
46754;DHT22;32500;50.620;3.400;2023-04-28T03:26:07;16.40;69.70
46754;DHT22;32500;50.620;3.400;2023-04-28T03:28:33;16.40;69.70
46754;DHT22;32500;50.620;3.400;2023-04-28T03:30:58;16.40;69.70
46754;DHT22;32500;50.620;3.400;2023-04-28T03:33:24;16.40;69.70
46754;DHT22;32500;50.620;3.400;2023-04-28T03:35:50;16.40;69.70
46754;DHT22;32500;50.620;3.400;2023-04-28T03:38:16;16.40;69.70
46754;DHT22;32500;50.620;3.400;2023-04-28T03:40:41;16.40;69.80
46754;DHT22;32500;50.620;3.400;2023-04-28T03:43:07;16.30;69.70
46754;DHT22;32500;50.620;3.400;2023-04-28T03:45:32;16.40;69.70
46754;DHT22;32500;50.620;3.400;2023-04-28T03:47:58;16.40;69.80
46754;DHT22;32500;50.620;3.400;2023-04-28T03:50:24;16.40;69.80
46754;DHT22;32500;50.620;3.400;2023-04-28T03:52:50;16.40;69.90
46754;DHT22;32500;50.620;3.400;2023-04-28T03:55:15;16.40;69.80
46754;DHT22;32500;50.620;3.400;2023-04-28T03:57:41;16.40;69.80
46754;DHT22;32500;50.620;3.400;2023-04-28T04:00:07;16.30;69.80
46754;DHT22;32500;50.620;3.400;2023-04-28T04:02:33;16.30;69.90
46754;DHT22;32500;50.620;3.400;2023-04-28T04:04:59;16.30;69.80
46754;DHT22;32500;50.620;3.400;2023-04-28T04:07:24;16.30;69.80
46754;DHT22;32500;50.620;3.400;2023-04-28T04:09:50;16.30;69.80
46754;DHT22;32500;50.620;3.400;2023-04-28T04:12:16;16.30;69.80
46754;DHT22;32500;50.620;3.400;2023-04-28T04:14:42;16.30;69.80
46754;DHT22;32500;50.620;3.400;2023-04-28T04:17:08;16.30;69.80
46754;DHT22;32500;50.620;3.400;2023-04-28T04:19:33;16.30;69.80
46754;DHT22;32500;50.620;3.400;2023-04-28T04:21:59;16.30;70.60
46754;DHT22;32500;50.620;3.400;2023-04-28T04:24:25;16.30;69.80
46754;DHT22;32500;50.620;3.400;2023-04-28T04:26:50;16.30;69.70
46754;DHT22;32500;50.620;3.400;2023-04-28T04:29:16;16.30;69.80
46754;DHT22;32500;50.620;3.400;2023-04-28T04:31:42;16.30;69.80
46754;DHT22;32500;50.620;3.400;2023-04-28T04:34:10;16.30;69.90
46754;DHT22;32500;50.620;3.400;2023-04-28T04:36:35;16.30;69.80
46754;DHT22;32500;50.620;3.400;2023-04-28T04:39:01;16.30;69.80
46754;DHT22;32500;50.620;3.400;2023-04-28T04:41:27;16.30;69.90
46754;DHT22;32500;50.620;3.400;2023-04-28T04:43:53;16.30;69.80
46754;DHT22;32500;50.620;3.400;2023-04-28T04:46:18;16.30;69.80
46754;DHT22;32500;50.620;3.400;2023-04-28T04:48:44;16.30;69.80
46754;DHT22;32500;50.620;3.400;2023-04-28T04:51:10;16.30;70.10
46754;DHT22;32500;50.620;3.400;2023-04-28T04:53:36;16.30;70.00
46754;DHT22;32500;50.620;3.400;2023-04-28T04:56:02;16.30;70.00
46754;DHT22;32500;50.620;3.400;2023-04-28T04:58:28;16.30;70.00
46754;DHT22;32500;50.620;3.400;2023-04-28T05:00:54;16.30;70.10
46754;DHT22;32500;50.620;3.400;2023-04-28T05:03:20;16.30;70.00
46754;DHT22;32500;50.620;3.400;2023-04-28T05:05:46;16.30;70.10
46754;DHT22;32500;50.620;3.400;2023-04-28T05:08:13;16.30;70.00
46754;DHT22;32500;50.620;3.400;2023-04-28T05:10:38;16.30;70.10
46754;DHT22;32500;50.620;3.400;2023-04-28T05:13:04;16.30;70.10
46754;DHT22;32500;50.620;3.400;2023-04-28T05:15:30;16.30;70.00
46754;DHT22;32500;50.620;3.400;2023-04-28T05:17:56;16.30;69.90
46754;DHT22;32500;50.620;3.400;2023-04-28T05:20:22;16.30;70.00
46754;DHT22;32500;50.620;3.400;2023-04-28T05:22:48;16.30;70.10
46754;DHT22;32500;50.620;3.400;2023-04-28T05:25:13;16.30;70.10
46754;DHT22;32500;50.620;3.400;2023-04-28T05:27:39;16.30;70.30
46754;DHT22;32500;50.620;3.400;2023-04-28T05:30:08;16.30;70.40
46754;DHT22;32500;50.620;3.400;2023-04-28T05:32:36;16.30;70.40
46754;DHT22;32500;50.620;3.400;2023-04-28T05:35:03;16.30;70.40
46754;DHT22;32500;50.620;3.400;2023-04-28T05:37:28;16.30;70.50
46754;DHT22;32500;50.620;3.400;2023-04-28T05:39:54;16.30;70.40
46754;DHT22;32500;50.620;3.400;2023-04-28T05:42:20;16.30;70.40
46754;DHT22;32500;50.620;3.400;2023-04-28T05:44:45;16.30;70.40
46754;DHT22;32500;50.620;3.400;2023-04-28T05:47:11;16.30;70.40
46754;DHT22;32500;50.620;3.400;2023-04-28T05:49:38;16.40;70.40
46754;DHT22;32500;50.620;3.400;2023-04-28T05:52:03;16.40;70.50
46754;DHT22;32500;50.620;3.400;2023-04-28T05:54:29;16.40;70.40
46754;DHT22;32500;50.620;3.400;2023-04-28T05:56:55;16.30;70.40
46754;DHT22;32500;50.620;3.400;2023-04-28T05:59:22;16.40;70.30
46754;DHT22;32500;50.620;3.400;2023-04-28T06:01:48;16.30;70.30
46754;DHT22;32500;50.620;3.400;2023-04-28T06:04:15;16.40;70.40
46754;DHT22;32500;50.620;3.400;2023-04-28T06:06:41;16.40;70.50
46754;DHT22;32500;50.620;3.400;2023-04-28T06:09:07;16.40;70.50
46754;DHT22;32500;50.620;3.400;2023-04-28T06:11:32;16.40;70.90
46754;DHT22;32500;50.620;3.400;2023-04-28T06:13:58;16.40;70.90
46754;DHT22;32500;50.620;3.400;2023-04-28T06:16:23;16.40;71.00
46754;DHT22;32500;50.620;3.400;2023-04-28T06:18:49;16.40;70.90
46754;DHT22;32500;50.620;3.400;2023-04-28T06:21:16;16.40;71.10
46754;DHT22;32500;50.620;3.400;2023-04-28T06:23:41;16.40;71.10
46754;DHT22;32500;50.620;3.400;2023-04-28T06:26:08;16.40;70.90
46754;DHT22;32500;50.620;3.400;2023-04-28T06:28:33;16.40;71.00
46754;DHT22;32500;50.620;3.400;2023-04-28T06:30:59;16.40;71.00
46754;DHT22;32500;50.620;3.400;2023-04-28T06:33:25;16.40;72.30
46754;DHT22;32500;50.620;3.400;2023-04-28T06:35:51;16.40;73.50
46754;DHT22;32500;50.620;3.400;2023-04-28T06:38:17;16.40;75.50
46754;DHT22;32500;50.620;3.400;2023-04-28T06:40:43;16.40;75.60
46754;DHT22;32500;50.620;3.400;2023-04-28T06:43:10;16.50;75.60
46754;DHT22;32500;50.620;3.400;2023-04-28T06:45:37;16.40;76.10
46754;DHT22;32500;50.620;3.400;2023-04-28T06:48:03;16.40;75.80
46754;DHT22;32500;50.620;3.400;2023-04-28T06:50:30;16.50;76.20
46754;DHT22;32500;50.620;3.400;2023-04-28T06:52:56;16.50;77.30
46754;DHT22;32500;50.620;3.400;2023-04-28T06:55:23;16.50;76.70
46754;DHT22;32500;50.620;3.400;2023-04-28T06:57:49;16.50;77.00
46754;DHT22;32500;50.620;3.400;2023-04-28T07:00:15;16.50;77.20
46754;DHT22;32500;50.620;3.400;2023-04-28T07:02:41;16.50;77.30
46754;DHT22;32500;50.620;3.400;2023-04-28T07:05:07;16.50;77.80
46754;DHT22;32500;50.620;3.400;2023-04-28T07:07:33;16.50;77.30
46754;DHT22;32500;50.620;3.400;2023-04-28T07:09:59;16.50;78.10
46754;DHT22;32500;50.620;3.400;2023-04-28T07:12:25;16.50;78.60
46754;DHT22;32500;50.620;3.400;2023-04-28T07:14:51;16.60;79.20
46754;DHT22;32500;50.620;3.400;2023-04-28T07:17:17;16.60;79.50
46754;DHT22;32500;50.620;3.400;2023-04-28T07:19:43;16.60;80.10
46754;DHT22;32500;50.620;3.400;2023-04-28T07:22:08;16.60;78.40
46754;DHT22;32500;50.620;3.400;2023-04-28T07:24:35;16.60;79.00
46754;DHT22;32500;50.620;3.400;2023-04-28T07:27:00;16.60;78.90
46754;DHT22;32500;50.620;3.400;2023-04-28T07:29:28;16.70;79.70
46754;DHT22;32500;50.620;3.400;2023-04-28T07:31:58;16.70;80.00
46754;DHT22;32500;50.620;3.400;2023-04-28T07:34:24;16.70;80.80
46754;DHT22;32500;50.620;3.400;2023-04-28T07:36:50;16.70;80.20
46754;DHT22;32500;50.620;3.400;2023-04-28T07:39:15;16.70;80.50
46754;DHT22;32500;50.620;3.400;2023-04-28T07:41:41;16.70;81.20
46754;DHT22;32500;50.620;3.400;2023-04-28T07:44:07;16.70;81.10
46754;DHT22;32500;50.620;3.400;2023-04-28T07:46:33;16.70;81.30
46754;DHT22;32500;50.620;3.400;2023-04-28T07:48:59;16.80;81.50
46754;DHT22;32500;50.620;3.400;2023-04-28T07:51:26;16.80;81.50
46754;DHT22;32500;50.620;3.400;2023-04-28T07:53:51;16.70;81.70
46754;DHT22;32500;50.620;3.400;2023-04-28T07:56:17;16.80;80.50
46754;DHT22;32500;50.620;3.400;2023-04-28T07:58:43;16.80;80.90
46754;DHT22;32500;50.620;3.400;2023-04-28T08:01:08;16.80;81.20
46754;DHT22;32500;50.620;3.400;2023-04-28T08:03:34;16.80;79.70
46754;DHT22;32500;50.620;3.400;2023-04-28T08:06:00;16.80;79.10
46754;DHT22;32500;50.620;3.400;2023-04-28T08:08:26;16.80;79.30
46754;DHT22;32500;50.620;3.400;2023-04-28T08:10:51;16.80;79.10
46754;DHT22;32500;50.620;3.400;2023-04-28T08:13:18;16.80;78.90
46754;DHT22;32500;50.620;3.400;2023-04-28T08:15:44;16.80;78.60
46754;DHT22;32500;50.620;3.400;2023-04-28T08:18:11;16.80;78.50
46754;DHT22;32500;50.620;3.400;2023-04-28T08:20:37;16.80;78.30
46754;DHT22;32500;50.620;3.400;2023-04-28T08:23:02;16.80;78.20
46754;DHT22;32500;50.620;3.400;2023-04-28T08:25:28;16.80;78.10
46754;DHT22;32500;50.620;3.400;2023-04-28T08:27:54;16.90;78.10
46754;DHT22;32500;50.620;3.400;2023-04-28T08:30:20;16.90;78.20
46754;DHT22;32500;50.620;3.400;2023-04-28T08:32:46;16.90;78.10
46754;DHT22;32500;50.620;3.400;2023-04-28T08:35:12;16.90;78.20
46754;DHT22;32500;50.620;3.400;2023-04-28T08:37:40;17.00;78.40
46754;DHT22;32500;50.620;3.400;2023-04-28T08:40:06;17.00;78.20
46754;DHT22;32500;50.620;3.400;2023-04-28T08:42:35;16.90;78.00
46754;DHT22;32500;50.620;3.400;2023-04-28T08:45:03;16.90;78.10
46754;DHT22;32500;50.620;3.400;2023-04-28T08:47:37;17.00;78.20
46754;DHT22;32500;50.620;3.400;2023-04-28T08:50:05;17.00;78.10
46754;DHT22;32500;50.620;3.400;2023-04-28T08:52:31;17.00;78.40
46754;DHT22;32500;50.620;3.400;2023-04-28T08:54:58;16.90;78.10
46754;DHT22;32500;50.620;3.400;2023-04-28T08:57:26;16.90;77.60
46754;DHT22;32500;50.620;3.400;2023-04-28T08:59:55;17.00;77.50
46754;DHT22;32500;50.620;3.400;2023-04-28T09:02:21;16.90;78.10
46754;DHT22;32500;50.620;3.400;2023-04-28T09:04:47;16.90;78.40
46754;DHT22;32500;50.620;3.400;2023-04-28T09:07:13;16.90;77.80
46754;DHT22;32500;50.620;3.400;2023-04-28T09:09:39;16.90;77.60
46754;DHT22;32500;50.620;3.400;2023-04-28T09:12:06;16.90;77.70
46754;DHT22;32500;50.620;3.400;2023-04-28T09:14:33;16.90;77.60
46754;DHT22;32500;50.620;3.400;2023-04-28T09:16:59;17.00;78.10
46754;DHT22;32500;50.620;3.400;2023-04-28T09:19:35;17.00;78.10
46754;DHT22;32500;50.620;3.400;2023-04-28T09:22:02;16.90;78.00
46754;DHT22;32500;50.620;3.400;2023-04-28T09:24:29;17.00;77.80
46754;DHT22;32500;50.620;3.400;2023-04-28T09:26:56;17.00;78.40
46754;DHT22;32500;50.620;3.400;2023-04-28T09:29:22;17.00;78.50
46754;DHT22;32500;50.620;3.400;2023-04-28T09:31:47;17.00;79.10
46754;DHT22;32500;50.620;3.400;2023-04-28T09:34:13;16.90;79.30
46754;DHT22;32500;50.620;3.400;2023-04-28T09:36:39;17.00;79.00
46754;DHT22;32500;50.620;3.400;2023-04-28T09:39:05;17.00;78.80
46754;DHT22;32500;50.620;3.400;2023-04-28T09:44:18;17.00;78.30
46754;DHT22;32500;50.620;3.400;2023-04-28T09:46:46;17.00;78.20
46754;DHT22;32500;50.620;3.400;2023-04-28T09:49:12;16.90;78.10
46754;DHT22;32500;50.620;3.400;2023-04-28T09:51:39;17.00;78.80
46754;DHT22;32500;50.620;3.400;2023-04-28T09:54:06;17.00;78.00
46754;DHT22;32500;50.620;3.400;2023-04-28T09:56:33;17.00;78.10
46754;DHT22;32500;50.620;3.400;2023-04-28T09:59:02;17.00;77.90
46754;DHT22;32500;50.620;3.400;2023-04-28T10:01:36;16.90;77.80
46754;DHT22;32500;50.620;3.400;2023-04-28T10:04:03;17.00;77.90
46754;DHT22;32500;50.620;3.400;2023-04-28T10:06:33;17.00;77.60
46754;DHT22;32500;50.620;3.400;2023-04-28T10:09:00;17.00;77.90
46754;DHT22;32500;50.620;3.400;2023-04-28T10:11:27;17.00;77.80
46754;DHT22;32500;50.620;3.400;2023-04-28T10:13:53;17.00;77.40
46754;DHT22;32500;50.620;3.400;2023-04-28T10:16:19;17.00;77.60
46754;DHT22;32500;50.620;3.400;2023-04-28T10:18:46;17.00;77.30
46754;DHT22;32500;50.620;3.400;2023-04-28T10:21:16;17.00;77.30
46754;DHT22;32500;50.620;3.400;2023-04-28T10:26:18;17.10;78.10
46754;DHT22;32500;50.620;3.400;2023-04-28T10:28:48;17.10;78.10
46754;DHT22;32500;50.620;3.400;2023-04-28T10:31:15;17.10;78.20
46754;DHT22;32500;50.620;3.400;2023-04-28T10:33:41;17.00;78.10
46754;DHT22;32500;50.620;3.400;2023-04-28T10:36:07;17.10;78.10
46754;DHT22;32500;50.620;3.400;2023-04-28T10:38:34;17.00;77.90
46754;DHT22;32500;50.620;3.400;2023-04-28T10:41:00;17.00;77.90
46754;DHT22;32500;50.620;3.400;2023-04-28T10:43:37;17.00;77.80
46754;DHT22;32500;50.620;3.400;2023-04-28T10:46:08;17.00;77.70
46754;DHT22;32500;50.620;3.400;2023-04-28T10:56:17;17.10;77.50
46754;DHT22;32500;50.620;3.400;2023-04-28T10:58:53;17.10;77.50
46754;DHT22;32500;50.620;3.400;2023-04-28T11:03:58;17.10;77.60
46754;DHT22;32500;50.620;3.400;2023-04-28T11:06:34;17.10;77.60
46754;DHT22;32500;50.620;3.400;2023-04-28T11:11:32;17.10;77.60
46754;DHT22;32500;50.620;3.400;2023-04-28T11:19:38;17.10;77.30
46754;DHT22;32500;50.620;3.400;2023-04-28T11:22:21;17.10;77.40
46754;DHT22;32500;50.620;3.400;2023-04-28T11:24:55;17.10;77.30
46754;DHT22;32500;50.620;3.400;2023-04-28T11:27:25;17.10;77.30
46754;DHT22;32500;50.620;3.400;2023-04-28T11:29:51;17.10;77.20
46754;DHT22;32500;50.620;3.400;2023-04-28T11:32:28;17.10;77.10
46754;DHT22;32500;50.620;3.400;2023-04-28T11:34:54;17.20;78.30
46754;DHT22;32500;50.620;3.400;2023-04-28T11:37:20;17.30;79.00
46754;DHT22;32500;50.620;3.400;2023-04-28T11:39:46;17.40;78.40
46754;DHT22;32500;50.620;3.400;2023-04-28T11:42:12;17.40;78.30
46754;DHT22;32500;50.620;3.400;2023-04-28T11:44:38;17.40;78.00
46754;DHT22;32500;50.620;3.400;2023-04-28T11:47:04;17.40;77.80
46754;DHT22;32500;50.620;3.400;2023-04-28T11:49:31;17.40;77.90
46754;DHT22;32500;50.620;3.400;2023-04-28T11:52:04;17.40;78.10
46754;DHT22;32500;50.620;3.400;2023-04-28T11:54:30;17.40;78.10
46754;DHT22;32500;50.620;3.400;2023-04-28T11:56:57;17.40;78.10
46754;DHT22;32500;50.620;3.400;2023-04-28T11:59:27;17.40;78.20
46754;DHT22;32500;50.620;3.400;2023-04-28T12:01:55;17.40;79.20
46754;DHT22;32500;50.620;3.400;2023-04-28T12:07:05;17.40;78.00
46754;DHT22;32500;50.620;3.400;2023-04-28T12:09:33;17.30;77.10
46754;DHT22;32500;50.620;3.400;2023-04-28T12:12:03;17.40;76.80
46754;DHT22;32500;50.620;3.400;2023-04-28T12:14:30;17.40;76.80
46754;DHT22;32500;50.620;3.400;2023-04-28T12:17:00;17.40;77.20
46754;DHT22;32500;50.620;3.400;2023-04-28T12:19:26;17.40;77.80
46754;DHT22;32500;50.620;3.400;2023-04-28T12:22:05;17.50;77.90
46754;DHT22;32500;50.620;3.400;2023-04-28T12:24:32;17.40;77.10
46754;DHT22;32500;50.620;3.400;2023-04-28T12:27:18;17.50;77.40
46754;DHT22;32500;50.620;3.400;2023-04-28T12:29:46;17.50;77.80
46754;DHT22;32500;50.620;3.400;2023-04-28T12:32:13;17.50;77.20
46754;DHT22;32500;50.620;3.400;2023-04-28T12:34:40;17.50;77.20
46754;DHT22;32500;50.620;3.400;2023-04-28T12:37:06;17.50;77.20
46754;DHT22;32500;50.620;3.400;2023-04-28T12:39:33;17.50;76.80
46754;DHT22;32500;50.620;3.400;2023-04-28T12:41:59;17.50;76.80
46754;DHT22;32500;50.620;3.400;2023-04-28T12:44:27;17.40;76.80
46754;DHT22;32500;50.620;3.400;2023-04-28T12:46:53;17.40;77.50
46754;DHT22;32500;50.620;3.400;2023-04-28T12:49:20;17.40;77.00
46754;DHT22;32500;50.620;3.400;2023-04-28T12:51:46;17.40;76.90
46754;DHT22;32500;50.620;3.400;2023-04-28T12:54:11;17.50;78.80
46754;DHT22;32500;50.620;3.400;2023-04-28T12:56:37;17.50;78.60
46754;DHT22;32500;50.620;3.400;2023-04-28T12:59:03;17.50;78.40
46754;DHT22;32500;50.620;3.400;2023-04-28T13:01:28;17.50;78.40
46754;DHT22;32500;50.620;3.400;2023-04-28T13:03:55;17.50;79.20
46754;DHT22;32500;50.620;3.400;2023-04-28T13:06:20;17.50;79.30
46754;DHT22;32500;50.620;3.400;2023-04-28T13:08:46;17.50;79.20
46754;DHT22;32500;50.620;3.400;2023-04-28T13:11:12;17.50;78.90
46754;DHT22;32500;50.620;3.400;2023-04-28T13:13:37;17.50;77.50
46754;DHT22;32500;50.620;3.400;2023-04-28T13:16:03;17.50;78.50
46754;DHT22;32500;50.620;3.400;2023-04-28T13:18:30;17.50;78.10
46754;DHT22;32500;50.620;3.400;2023-04-28T13:20:56;17.50;77.00
46754;DHT22;32500;50.620;3.400;2023-04-28T13:23:21;17.50;77.50
46754;DHT22;32500;50.620;3.400;2023-04-28T13:25:47;17.50;77.10
46754;DHT22;32500;50.620;3.400;2023-04-28T13:28:13;17.50;76.30
46754;DHT22;32500;50.620;3.400;2023-04-28T13:30:40;17.50;75.70
46754;DHT22;32500;50.620;3.400;2023-04-28T13:33:06;17.50;75.30
46754;DHT22;32500;50.620;3.400;2023-04-28T13:35:31;17.50;76.20
46754;DHT22;32500;50.620;3.400;2023-04-28T13:37:57;17.50;76.90
46754;DHT22;32500;50.620;3.400;2023-04-28T13:40:27;17.50;76.80
46754;DHT22;32500;50.620;3.400;2023-04-28T13:42:53;17.50;77.80
46754;DHT22;32500;50.620;3.400;2023-04-28T13:45:19;17.50;77.40
46754;DHT22;32500;50.620;3.400;2023-04-28T13:47:45;17.50;77.50
46754;DHT22;32500;50.620;3.400;2023-04-28T13:50:10;17.50;77.70
46754;DHT22;32500;50.620;3.400;2023-04-28T13:52:36;17.50;77.70
46754;DHT22;32500;50.620;3.400;2023-04-28T13:55:02;17.50;77.80
46754;DHT22;32500;50.620;3.400;2023-04-28T13:57:28;17.50;77.60
46754;DHT22;32500;50.620;3.400;2023-04-28T13:59:53;17.50;77.60
46754;DHT22;32500;50.620;3.400;2023-04-28T14:02:19;17.50;77.40
46754;DHT22;32500;50.620;3.400;2023-04-28T14:04:45;17.50;77.40
46754;DHT22;32500;50.620;3.400;2023-04-28T14:07:13;17.50;77.30
46754;DHT22;32500;50.620;3.400;2023-04-28T14:09:39;17.50;77.30
46754;DHT22;32500;50.620;3.400;2023-04-28T14:12:05;17.50;77.30
46754;DHT22;32500;50.620;3.400;2023-04-28T14:14:31;17.50;77.10
46754;DHT22;32500;50.620;3.400;2023-04-28T14:16:57;17.60;76.90
46754;DHT22;32500;50.620;3.400;2023-04-28T14:19:23;17.60;76.70
46754;DHT22;32500;50.620;3.400;2023-04-28T14:21:51;17.60;76.60
46754;DHT22;32500;50.620;3.400;2023-04-28T14:24:17;17.60;76.70
46754;DHT22;32500;50.620;3.400;2023-04-28T14:26:44;17.60;76.60
46754;DHT22;32500;50.620;3.400;2023-04-28T14:29:10;17.70;76.60
46754;DHT22;32500;50.620;3.400;2023-04-28T14:31:36;17.70;76.60
46754;DHT22;32500;50.620;3.400;2023-04-28T14:34:02;17.70;76.60
46754;DHT22;32500;50.620;3.400;2023-04-28T14:36:30;17.60;76.60
46754;DHT22;32500;50.620;3.400;2023-04-28T14:38:57;17.70;77.00
46754;DHT22;32500;50.620;3.400;2023-04-28T14:41:23;17.80;77.20
46754;DHT22;32500;50.620;3.400;2023-04-28T14:43:49;17.70;76.80
46754;DHT22;32500;50.620;3.400;2023-04-28T14:46:14;17.60;76.80
46754;DHT22;32500;50.620;3.400;2023-04-28T14:48:42;17.70;77.20
46754;DHT22;32500;50.620;3.400;2023-04-28T14:51:08;17.70;77.40
46754;DHT22;32500;50.620;3.400;2023-04-28T14:53:34;17.70;77.40
46754;DHT22;32500;50.620;3.400;2023-04-28T14:56:00;17.70;77.60
46754;DHT22;32500;50.620;3.400;2023-04-28T14:58:26;17.70;78.40
46754;DHT22;32500;50.620;3.400;2023-04-28T15:00:51;17.70;78.10
46754;DHT22;32500;50.620;3.400;2023-04-28T15:03:17;17.70;77.50
46754;DHT22;32500;50.620;3.400;2023-04-28T15:05:43;17.70;77.90
46754;DHT22;32500;50.620;3.400;2023-04-28T15:08:09;17.70;77.60
46754;DHT22;32500;50.620;3.400;2023-04-28T15:10:39;17.70;77.50
46754;DHT22;32500;50.620;3.400;2023-04-28T15:13:08;17.70;77.60
46754;DHT22;32500;50.620;3.400;2023-04-28T15:15:34;17.60;77.40
46754;DHT22;32500;50.620;3.400;2023-04-28T15:18:00;17.60;77.50
46754;DHT22;32500;50.620;3.400;2023-04-28T15:20:28;17.60;77.30
46754;DHT22;32500;50.620;3.400;2023-04-28T15:22:54;17.60;77.20
46754;DHT22;32500;50.620;3.400;2023-04-28T15:25:20;17.60;77.10
46754;DHT22;32500;50.620;3.400;2023-04-28T15:27:46;17.60;77.10
46754;DHT22;32500;50.620;3.400;2023-04-28T15:30:12;17.60;77.10
46754;DHT22;32500;50.620;3.400;2023-04-28T15:32:38;17.60;77.30
46754;DHT22;32500;50.620;3.400;2023-04-28T15:35:04;17.60;77.20
46754;DHT22;32500;50.620;3.400;2023-04-28T15:37:38;17.60;77.10
46754;DHT22;32500;50.620;3.400;2023-04-28T15:40:07;17.60;77.40
46754;DHT22;32500;50.620;3.400;2023-04-28T15:42:33;17.70;77.10
46754;DHT22;32500;50.620;3.400;2023-04-28T15:44:59;17.70;76.90
46754;DHT22;32500;50.620;3.400;2023-04-28T15:47:26;17.70;76.80
46754;DHT22;32500;50.620;3.400;2023-04-28T15:49:53;17.70;76.60
46754;DHT22;32500;50.620;3.400;2023-04-28T15:52:19;17.70;76.70